createdAt,value
2022-11-24T01:23:44.642Z,3.28
2022-11-24T01:34:12.691Z,5.20
2022-11-24T01:39:29.059Z,5.53
2022-11-24T01:48:14.862Z,3.40
2022-11-24T02:14:21.644Z,2.53
2022-11-24T02:18:18.728Z,2.03
2022-11-24T02:22:05.128Z,2.30
2022-11-24T02:31:57.517Z,1.90
2022-11-24T02:34:43.393Z,2.90
2022-11-24T02:37:18.936Z,2.50
2022-11-24T02:39:50.383Z,3.15
2022-11-24T02:42:21.891Z,2.92
2022-11-24T02:45:31.287Z,4.53
2022-11-24T02:48:13.858Z,3.50
2022-11-24T02:51:04.319Z,2.88
2022-11-24T02:53:39.950Z,3.72
2022-11-24T02:56:11.784Z,4.07
2022-11-24T02:58:44.459Z,3.60
2022-11-24T03:01:43.565Z,3.42
2022-11-24T03:04:19.792Z,4.45
2022-11-24T03:07:15.696Z,3.28
2022-11-24T03:10:17.926Z,3.10
2022-11-24T03:12:50.360Z,2.97
2022-11-24T03:15:23.454Z,3.05
2022-11-24T03:18:05.472Z,3.17
2022-11-24T03:20:39.359Z,3.10
2022-11-24T03:23:15.494Z,3.78
2022-11-24T03:30:48.688Z,3.22
2022-11-24T03:33:23.220Z,3.08
2022-11-24T03:36:06.416Z,3.40
2022-11-24T03:39:23.779Z,4.07
2022-11-24T03:43:22.971Z,2.85
2022-11-24T03:49:10.101Z,5.72
2022-11-24T03:51:52.066Z,2.25
2022-11-24T03:54:40.607Z,3.40
2022-11-24T03:57:15.142Z,2.70
2022-11-24T03:59:51.627Z,3.05
2022-11-24T04:03:17.173Z,3.63
2022-11-24T04:07:19.258Z,2.80
2022-11-24T04:10:22.990Z,3.15
2022-11-24T04:24:18.074Z,5.03
2022-11-24T04:27:16.510Z,3.27
2022-11-24T04:30:19.616Z,4.70
2022-11-24T04:33:20.311Z,3.28
2022-11-24T04:36:31.891Z,3.15
2022-11-24T05:06:04.176Z,3.25
2022-11-24T05:12:55.477Z,4.47
2022-11-24T05:16:39.060Z,3.13
2022-11-24T05:29:40.394Z,3.33
2022-11-24T05:32:38.402Z,4.10
2022-11-24T05:35:19.443Z,3.47
2022-11-24T05:37:51.952Z,3.10
2022-11-24T05:40:35.739Z,3.78
2022-11-24T05:44:10.839Z,2.95
2022-11-24T05:46:47.432Z,3.50
2022-11-24T05:50:10.441Z,5.20
2022-11-24T05:58:10.155Z,2.95
2022-11-24T06:06:26.763Z,3.05
2022-11-24T06:30:19.649Z,2.92
2022-11-24T06:32:51.506Z,3.40
2022-11-24T06:36:04.851Z,3.78
2022-11-24T06:38:46.912Z,3.85
2022-11-24T06:41:23.191Z,3.50
2022-11-24T06:48:23.653Z,4.28
2022-11-24T06:51:00.349Z,3.67
2022-11-24T06:53:40.451Z,3.42
2022-11-24T06:56:23.196Z,4.10
2022-11-24T06:59:24.506Z,4.22
2022-11-24T07:02:45.607Z,3.55
2022-11-24T07:05:29.150Z,4.28
2022-11-24T07:08:03.083Z,3.13
2022-11-24T07:10:36.909Z,3.22
2022-11-24T07:13:12.159Z,3.75
2022-11-24T07:15:46.009Z,4.60
2022-11-24T07:18:16.251Z,4.28
2022-11-24T07:20:54.360Z,3.17
2022-11-24T07:23:24.737Z,3.67
2022-11-24T07:26:07.323Z,4.97
2022-11-24T07:28:42.328Z,4.32
2022-11-24T07:31:19.967Z,4.38
2022-11-24T07:34:02.847Z,3.10
2022-11-24T07:36:35.171Z,4.13
2022-11-24T07:39:16.672Z,3.60
2022-11-24T07:41:52.060Z,4.68
2022-11-24T07:44:22.626Z,4.80
2022-11-24T07:46:55.124Z,3.88
2022-11-24T07:49:36.365Z,3.88
2022-11-24T07:52:12.288Z,3.65
2022-11-24T07:54:42.866Z,2.95
2022-11-24T07:57:16.723Z,4.43
2022-11-24T07:59:49.096Z,4.57
2022-11-24T08:02:20.965Z,3.55
2022-11-24T08:04:53.275Z,3.90
2022-11-24T08:07:42.351Z,4.40
2022-11-24T08:10:39.599Z,3.88
2022-11-24T08:13:11.482Z,5.18
2022-11-24T08:15:42.481Z,4.38
2022-11-24T08:18:14.564Z,3.30
2022-11-24T08:20:47.791Z,3.53
2022-11-24T08:23:20.449Z,3.92
2022-11-24T08:26:20.797Z,4.43
2022-11-24T08:29:07.579Z,3.37
2022-11-24T08:31:42.827Z,5.50
2022-11-24T08:34:12.493Z,4.18
2022-11-24T08:36:47.536Z,4.15
2022-11-24T08:40:01.299Z,3.63
2022-11-24T09:27:38.584Z,2.88
2022-11-24T10:44:04.270Z,3.55
2022-11-24T10:55:52.234Z,3.20
2022-11-24T11:06:04.001Z,2.80
2022-11-24T11:39:24.099Z,3.95
2022-11-24T11:56:19.215Z,4.53
2022-11-24T12:14:19.451Z,3.40
2022-11-24T12:40:51.965Z,4.32
2022-11-24T13:21:24.611Z,5.25
2022-11-24T13:32:48.296Z,4.25
2022-11-24T14:38:30.086Z,4.13
2022-11-24T14:41:28.296Z,6.60
2022-11-24T14:44:09.383Z,5.97
2022-11-24T14:46:39.565Z,5.90
2022-11-24T14:49:09.876Z,5.80
2022-11-24T14:51:45.919Z,6.43
2022-11-24T14:54:19.357Z,6.82
2022-11-24T14:57:04.917Z,5.47
2022-11-24T14:59:39.373Z,7.47
2022-11-24T15:02:45.732Z,6.57
2022-11-24T15:05:20.379Z,6.70
2022-11-24T15:39:35.581Z,8.95
2022-11-24T16:15:18.521Z,10.25
2022-11-24T16:37:52.250Z,10.60
2022-11-24T16:42:10.769Z,10.52
2022-11-24T16:46:48.582Z,8.90
2022-11-24T17:17:32.468Z,10.07
2022-11-24T17:38:34.482Z,12.45
2022-11-24T17:41:06.723Z,12.85
2022-11-24T17:43:38.214Z,11.40
2022-11-24T17:46:12.349Z,10.68
2022-11-24T17:48:43.784Z,11.15
2022-11-24T17:51:25.328Z,11.65
2022-11-24T17:54:03.305Z,13.00
2022-11-24T17:56:43.543Z,10.70
2022-11-24T17:59:16.191Z,9.88
2022-11-24T18:01:47.630Z,10.25
2022-11-24T18:04:17.901Z,9.73
2022-11-24T19:11:43.849Z,8.60
2022-11-24T20:09:04.693Z,8.43
2022-11-24T20:19:19.982Z,8.05
2022-11-24T20:29:12.638Z,8.15
2022-11-24T21:53:52.739Z,6.15
2022-11-24T22:09:32.959Z,6.13
2022-11-24T22:54:47.172Z,6.47
2022-11-24T23:39:19.420Z,5.78
2022-11-24T23:41:53.261Z,6.30
2022-11-24T23:44:23.949Z,7.35
2022-11-24T23:46:54.730Z,8.38
2022-11-24T23:49:27.751Z,7.75
2022-11-24T23:52:00.199Z,7.65
2022-11-24T23:54:31.320Z,6.95
2022-11-24T23:57:02.387Z,7.75
2022-11-24T23:59:31.887Z,7.25
